Data for 01/29/2016

Time Sea-Level Adjusted Pressure Absolute Pressure Temperature Relative Humidity Dew Point   
(mb) (inHg) (mb) (inHg) (C) (F) (%) (C) (F)
00:05 1012 29.88 841 24.83 4.4 40 55 -3.8 25.2
00:10 1012 29.88 841 24.83 4.3 39.7 56 -3.7 25.4
00:15 1012 29.88 842 24.86 4.1 39.4 56 -3.8 25.2
00:20 1012 29.88 842 24.86 4 39.2 58 -3.5 25.6
00:25 1012 29.88 842 24.86 3.8 38.9 59 -3.4 25.9
00:30 1012 29.88 842 24.86 3.7 38.6 61 -3.3 26.1
00:35 1012 29.88 842 24.86 3.6 38.4 61 -3.3 26
00:40 1013 29.91 842 24.86 3.5 38.3 61 -3.3 26.1
00:45 1012 29.88 842 24.86 3.5 38.2 63 -3 26.6
00:50 1012 29.88 842 24.86 3.2 37.7 68 -2.2 28.1
00:55 1012 29.88 842 24.86 3 37.3 69 -2.2 28.1
01:00 1012 29.88 841 24.83 3 37.4 66 -2.7 27.2
01:05 1012 29.88 842 24.86 3.2 37.7 63 -3.1 26.4
01:10 1012 29.88 842 24.86 3.4 38.2 62 -3.1 26.4
01:15 1012 29.88 842 24.86 3.5 38.2 64 -2.6 27.3
01:20 1012 29.88 842 24.86 3.4 38.1 64 -2.7 27.1
01:25 1012 29.88 842 24.86 3.4 38.1 65 -2.6 27.2
01:30 1012 29.88 842 24.86 3.3 37.9 67 -2.3 27.9
01:35 1012 29.88 842 24.86 3.2 37.8 65 -2.8 27
01:40 1012 29.88 842 24.86 3.3 37.9 67 -2.2 28
01:45 1013 29.91 842 24.86 3.1 37.6 67 -2.5 27.5
01:50 1013 29.91 842 24.86 3 37.3 68 -2.5 27.6
01:55 1013 29.91 842 24.86 3 37.4 64 -3.2 26.2
02:00 1013 29.91 842 24.86 3.4 38.1 65 -2.6 27.3
02:05 1013 29.91 842 24.86 3.2 37.8 67 -2.3 27.8
02:10 1013 29.91 842 24.86 2.9 37.3 68 -2.3 27.8
02:15 1013 29.91 842 24.86 2.8 37 69 -2.3 27.9
02:20 1013 29.91 842 24.86 2.7 36.8 69 -2.5 27.5
02:25 1013 29.91 842 24.86 2.7 36.8 69 -2.4 27.8
02:30 1013 29.91 842 24.86 2.5 36.6 70 -2.4 27.6
02:35 1013 29.91 842 24.86 2.5 36.5 70 -2.5 27.5
02:40 1013 29.91 842 24.86 2.5 36.5 69 -2.6 27.4
02:45 1013 29.91 842 24.86 2.6 36.6 68 -2.8 27
02:50 1013 29.91 842 24.86 3.1 37.6 62 -3.5 25.7
02:55 1013 29.91 842 24.86 3.6 38.6 61 -3.2 26.3
03:00 1013 29.91 842 24.86 3.8 38.8 60 -3.2 26.2
03:05 1013 29.91 842 24.86 3.8 38.8 60 -3.2 26.2
03:10 1013 29.91 842 24.86 3.9 38.9 59 -3.4 25.9
03:15 1013 29.91 842 24.86 3.9 39 58 -3.6 25.5
03:20 1013 29.91 842 24.86 4 39.2 57 -3.7 25.4
03:25 1013 29.91 842 24.86 4 39.3 57 -3.6 25.5
03:30 1013 29.91 842 24.86 3.9 39 58 -3.5 25.6
03:35 1013 29.91 842 24.86 3.7 38.6 59 -3.7 25.3
03:40 1013 29.91 842 24.86 3.5 38.3 59 -3.7 25.3
03:45 1013 29.91 842 24.86 3.4 38.1 59 -3.8 25.1
03:50 1013 29.91 842 24.86 3.2 37.8 60 -3.7 25.3
03:55 1013 29.91 842 24.86 3.1 37.6 60 -4 24.8
04:00 1013 29.91 842 24.86 3 37.5 59 -4.1 24.6
04:05 1013 29.91 842 24.86 3 37.5 60 -4.1 24.7
04:10 1013 29.91 842 24.86 3 37.4 60 -4.1 24.6
04:15 1013 29.91 842 24.86 2.9 37.2 61 -3.9 24.9
04:20 1013 29.91 842 24.86 2.7 36.8 61 -4 24.7
04:25 1013 29.91 842 24.86 2.5 36.5 62 -4.1 24.5
04:30 1013 29.91 842 24.86 2.3 36.2 62 -4.2 24.5
04:35 1013 29.91 842 24.86 2.2 36 62 -4.3 24.3
04:40 1013 29.91 842 24.86 2.4 36.3 60 -4.6 23.8
04:45 1013 29.91 842 24.86 2.6 36.7 58 -4.8 23.4
04:50 1013 29.91 842 24.86 2.7 36.8 58 -4.8 23.4
04:55 1013 29.91 842 24.86 2.5 36.6 57 -5.1 22.8
05:00 1013 29.91 842 24.86 2.5 36.6 57 -5.2 22.6
05:05 1013 29.91 842 24.86 2.4 36.4 56 -5.4 22.2
05:10 1013 29.91 842 24.86 2.5 36.4 54 -5.9 21.4
05:15 1013 29.91 842 24.86 2.7 36.8 53 -5.9 21.4
05:20 1013 29.91 842 24.86 2.6 36.7 54 -5.8 21.6
05:25 1013 29.91 842 24.86 2.5 36.4 53 -6.1 21
05:30 1013 29.91 843 24.89 2.5 36.4 53 -6.2 20.8
05:35 1014 29.94 843 24.89 2.6 36.6 52 -6.3 20.6
05:40 1014 29.94 843 24.89 2.6 36.7 52 -6.3 20.7
05:45 1014 29.94 843 24.89 2.5 36.5 52 -6.3 20.7
05:50 1014 29.94 843 24.89 2.5 36.5 51 -6.6 20.1
05:55 1014 29.94 843 24.89 2.5 36.5 52 -6.4 20.6
06:00 1014 29.94 843 24.89 2.3 36.1 53 -6.2 20.8
06:05 1014 29.94 843 24.89 2.1 35.7 53 -6.5 20.2
06:10 1014 29.94 843 24.89 2.1 35.8 52 -6.7 19.9
06:15 1014 29.94 843 24.89 2.2 35.9 52 -6.8 19.8
06:20 1014 29.94 843 24.89 2.3 36.2 52 -6.6 20.1
06:25 1014 29.94 843 24.89 2.3 36.2 52 -6.5 20.3
06:30 1014 29.94 843 24.89 2.3 36.2 52 -6.5 20.2
06:35 1014 29.94 843 24.89 2.3 36.2 52 -6.6 20.2
06:40 1014 29.94 843 24.89 2 35.7 60 -5 23
06:45 1014 29.94 843 24.89 0.9 33.6 65 -5 23
06:50 1014 29.94 843 24.89 0.5 32.8 65 -5.3 22.4
06:55 1014 29.94 843 24.89 0.4 32.7 65 -5.5 22.2
07:00 1014 29.94 843 24.89 0.4 32.7 64 -5.6 21.8
07:05 1014 29.94 843 24.89 0.4 32.8 63 -5.7 21.7
07:10 1014 29.94 843 24.89 0.5 32.9 63 -5.7 21.7
07:15 1014 29.94 843 24.89 1 33.8 59 -6.1 21.1
07:20 1013 29.91 843 24.89 1.1 33.9 60 -5.8 21.5
07:25 1013 29.91 842 24.86 1 33.8 59 -6 21.2
07:30 1013 29.91 842 24.86 1.1 34 59 -6 21.2
07:35 1013 29.91 842 24.86 0.9 33.6 61 -5.8 21.6
07:40 1012 29.88 842 24.86 0.6 33 63 -5.7 21.7
07:45 1012 29.88 842 24.86 0.3 32.6 64 -5.8 21.6
07:50 1013 29.91 842 24.86 0.3 32.6 63 -6 21.2
07:55 1013 29.91 842 24.86 0.4 32.7 63 -5.9 21.4
08:00 1013 29.91 842 24.86 0.2 32.4 63 -5.9 21.3
08:05 1013 29.91 842 24.86 0.1 32.1 64 -5.9 21.3
08:10 1013 29.91 843 24.89 -0 32 64 -6.1 21
08:15 1014 29.94 843 24.89 -0.2 31.7 64 -6.2 20.9
08:20 1014 29.94 843 24.89 -0.6 31 65 -6.3 20.6
08:25 1014 29.94 843 24.89 -0.4 31.2 63 -6.6 20.1
08:30 1014 29.94 843 24.89 -0 31.9 62 -6.4 20.5
08:35 1014 29.94 843 24.89 0.1 32.1 61 -6.6 20
08:40 1014 29.94 843 24.89 0.1 32.2 62 -6.3 20.6
08:45 1014 29.94 843 24.89 -0.2 31.6 63 -6.4 20.4
08:50 1014 29.94 843 24.89 -0.7 30.8 65 -6.5 20.3
08:55 1014 29.94 843 24.89 -1 30.3 65 -6.6 20.1
09:00 1014 29.94 843 24.89 -0.6 30.9 62 -7 19.4
09:05 1014 29.94 843 24.89 -0.5 31.2 60 -7.3 18.8
09:10 1013 29.91 843 24.89 -0.4 31.3 61 -7.1 19.2
09:15 1013 29.91 843 24.89 -0.5 31.1 60 -7.3 18.9
09:20 1013 29.91 843 24.89 -0.7 30.7 63 -6.9 19.5
09:25 1014 29.94 843 24.89 -0.1 31.8 58 -7.3 18.9
09:30 1014 29.94 843 24.89 0.5 32.9 56 -7.4 18.8
09:35 1013 29.91 843 24.89 0.7 33.3 55 -7.3 18.8
09:40 1013 29.91 843 24.89 0.9 33.6 54 -7.5 18.5
09:45 1014 29.94 843 24.89 1 33.8 55 -7 19.4
09:50 1014 29.94 843 24.89 0.6 33 57 -7 19.4
09:55 1014 29.94 843 24.89 0.2 32.3 58 -7.1 19.3
10:00 1013 29.91 843 24.89 0.8 33.5 54 -7.4 18.6
10:05 1013 29.91 843 24.89 1.5 34.7 51 -7.5 18.4
10:10 1013 29.91 843 24.89 1.5 34.6 53 -7 19.4
10:15 1013 29.91 843 24.89 0.9 33.6 55 -7.1 19.2
10:20 1013 29.91 843 24.89 0.9 33.6 53 -7.5 18.5
10:25 1014 29.94 843 24.89 1.3 34.3 52 -7.6 18.4
10:30 1014 29.94 843 24.89 1.6 34.8 52 -7.4 18.7
10:35 1013 29.91 843 24.89 1.8 35.2 51 -7.4 18.7
10:40 1014 29.94 843 24.89 1.9 35.4 51 -7.2 19.1
10:45 1014 29.94 843 24.89 1.7 35 53 -6.9 19.6
10:50 1013 29.91 843 24.89 1.5 34.8 54 -6.9 19.6
10:55 1013 29.91 843 24.89 1.5 34.7 54 -6.7 19.9
11:00 1013 29.91 843 24.89 1.5 34.7 54 -6.9 19.7
11:05 1013 29.91 843 24.89 1.4 34.5 56 -6.5 20.2
11:10 1013 29.91 843 24.89 1.2 34.1 57 -6.5 20.3
11:15 1013 29.91 843 24.89 0.7 33.3 57 -6.9 19.6
11:20 1013 29.91 843 24.89 0.8 33.4 57 -6.7 19.9
11:25 1013 29.91 843 24.89 1.2 34.2 56 -6.5 20.3
11:30 1013 29.91 843 24.89 1.4 34.5 55 -6.7 20
11:35 1013 29.91 843 24.89 1.2 34.2 56 -6.6 20.1
11:40 1013 29.91 842 24.86 1.2 34.1 56 -6.7 19.9
11:45 1013 29.91 842 24.86 1.2 34.1 55 -6.9 19.5
11:50 1013 29.91 842 24.86 1.2 34.2 55 -6.8 19.7
11:55 1013 29.91 842 24.86 1.6 34.9 53 -6.9 19.5
12:00 1013 29.91 842 24.86 1.6 34.9 53 -6.9 19.6
12:05 1012 29.88 842 24.86 1.8 35.2 51 -7.2 19
12:10 1012 29.88 842 24.86 1.9 35.4 52 -6.9 19.6
12:15 1012 29.88 842 24.86 1.9 35.3 52 -7 19.5
12:20 1012 29.88 841 24.83 1.8 35.3 53 -6.8 19.8
12:25 1012 29.88 841 24.83 2.1 35.8 52 -6.9 19.6
12:30 1012 29.88 841 24.83 2.1 35.8 53 -6.6 20.2
12:35 1012 29.88 841 24.83 2.2 35.9 52 -6.7 19.9
12:40 1011 29.85 841 24.83 2 35.6 53 -6.7 20
12:45 1011 29.85 841 24.83 2 35.6 52 -6.8 19.8
12:50 1012 29.88 841 24.83 2.4 36.3 51 -6.8 19.8
12:55 1012 29.88 841 24.83 2.8 37 51 -6.3 20.6
13:00 1012 29.88 841 24.83 2.7 36.9 53 -5.8 21.5
13:05 1012 29.88 841 24.83 2.5 36.6 53 -6 21.2
13:10 1011 29.85 841 24.83 2.7 36.8 51 -6.5 20.3
13:15 1011 29.85 840 24.81 2.9 37.1 50 -6.5 20.3
13:20 1011 29.85 840 24.81 2.9 37.2 51 -6.2 20.8
13:25 1011 29.85 840 24.81 2.1 35.7 56 -5.8 21.5
13:30 1011 29.85 840 24.81 1.9 35.3 55 -6.3 20.7
13:35 1010 29.83 839 24.78 1.7 35.1 57 -5.9 21.4
13:40 1010 29.83 839 24.78 1.4 34.5 57 -6.3 20.7
13:45 1010 29.83 839 24.78 1.3 34.3 57 -6.4 20.5
13:50 1010 29.83 839 24.78 1.5 34.6 56 -6.3 20.6
13:55 1009 29.8 838 24.75 1.9 35.4 56 -6 21.1
14:00 1009 29.8 838 24.75 2.1 35.8 55 -6 21.2
14:05 1009 29.8 838 24.75 2.1 35.8 55 -6 21.2
14:10 1008 29.77 838 24.75 2.1 35.8 52 -6.8 19.8
14:15 1008 29.77 837 24.72 2.3 36.1 53 -6.4 20.6
14:20 1008 29.77 837 24.72 2.5 36.4 50 -7.1 19.3
14:25 1008 29.77 837 24.72 2.5 36.4 49 -7.3 18.9
14:30 1008 29.77 837 24.72 2.5 36.5 49 -7.2 19.1
14:35 1008 29.77 837 24.72 2.7 36.8 48 -7.3 18.9
14:40 1008 29.77 837 24.72 2.8 37 48 -7.2 19
14:45 1008 29.77 837 24.72 2.8 37.1 47 -7.4 18.6
14:50 1008 29.77 837 24.72 2.8 37.1 47 -7.4 18.6
14:55 1008 29.77 837 24.72 2.9 37.1 48 -7 19.4
15:00 1007 29.74 837 24.72 2.8 37 53 -5.8 21.5
15:05 1007 29.74 837 24.72 2.5 36.4 52 -6.3 20.6
15:10 1007 29.74 837 24.72 2.4 36.2 51 -6.7 19.9
15:15 1007 29.74 837 24.72 2.4 36.3 52 -6.4 20.5
15:20 1007 29.74 836 24.69 2.5 36.4 54 -6 21.1
15:25 1007 29.74 836 24.69 2.6 36.6 51 -6.5 20.4
15:30 1007 29.74 836 24.69 2.8 37.1 50 -6.5 20.3
15:35 1007 29.74 836 24.69 3.1 37.5 51 -6.1 21.1
15:40 1007 29.74 836 24.69 3.1 37.6 50 -6.2 20.8
15:45 1007 29.74 836 24.69 3 37.4 51 -6.2 20.9
15:50 1007 29.74 836 24.69 3 37.4 50 -6.3 20.6
15:55 1007 29.74 836 24.69 2.9 37.3 50 -6.4 20.5
16:00 1006 29.71 836 24.69 3 37.3 50 -6.5 20.3
16:05 1006 29.71 835 24.66 3.1 37.6 50 -6.3 20.6
16:10 1006 29.71 836 24.69 3.4 38.2 51 -5.8 21.6
16:15 1006 29.71 836 24.69 3.5 38.4 50 -5.8 21.6
16:20 1006 29.71 836 24.69 3.5 38.2 52 -5.4 22.3
16:25 1006 29.71 836 24.69 3.4 38.1 54 -5.2 22.7
16:30 1007 29.74 836 24.69 3.2 37.8 55 -5 23
16:35 1007 29.74 836 24.69 3 37.5 57 -4.6 23.6
16:40 1007 29.74 836 24.69 2.9 37.1 58 -4.6 23.8
16:45 1007 29.74 836 24.69 2.5 36.5 60 -4.6 23.8
16:50 1007 29.74 836 24.69 2.1 35.8 61 -4.7 23.5
16:55 1007 29.74 836 24.69 1.9 35.4 61 -4.9 23.3
17:00 1007 29.74 836 24.69 1.9 35.5 62 -4.6 23.7
17:05 1007 29.74 836 24.69 1.8 35.3 62 -4.6 23.7
17:10 1007 29.74 836 24.69 1.7 35.1 63 -4.6 23.8
17:15 1007 29.74 836 24.69 1.5 34.7 63 -4.8 23.4
17:20 1007 29.74 836 24.69 1.4 34.5 64 -4.7 23.6
17:25 1007 29.74 836 24.69 1.5 34.7 62 -5 23.1
17:30 1007 29.74 836 24.69 1.4 34.6 63 -4.8 23.3
17:35 1006 29.71 836 24.69 1.4 34.5 64 -4.7 23.5
17:40 1006 29.71 836 24.69 1.4 34.5 64 -4.6 23.7
17:45 1007 29.74 836 24.69 1.3 34.4 65 -4.6 23.8
17:50 1006 29.71 835 24.66 1.3 34.4 63 -4.9 23.2
17:55 1006 29.71 835 24.66 1.3 34.4 67 -4.2 24.4
18:00 1006 29.71 835 24.66 1.2 34.1 70 -3.7 25.3
18:05 1006 29.71 835 24.66 0.9 33.7 73 -3.5 25.8
18:10 1006 29.71 835 24.66 0.9 33.6 74 -3.2 26.2
18:15 1006 29.71 835 24.66 0.9 33.5 75 -3.1 26.5
18:20 1006 29.71 835 24.66 0.8 33.4 77 -2.8 26.9
18:25 1005 29.68 835 24.66 0.7 33.3 78 -2.7 27.2
18:30 1005 29.68 835 24.66 0.8 33.4 78 -2.6 27.2
18:35 1005 29.68 835 24.66 0.8 33.5 78 -2.7 27.2
18:40 1005 29.68 834 24.63 0.8 33.5 77 -2.7 27.1
18:45 1005 29.68 834 24.63 0.9 33.6 76 -2.8 26.9
18:50 1005 29.68 834 24.63 0.9 33.7 76 -2.8 27
18:55 1005 29.68 835 24.66 1 33.8 76 -2.7 27.1
19:00 1005 29.68 835 24.66 1 33.9 76 -2.7 27.2
19:05 1005 29.68 834 24.63 1.1 33.9 76 -2.7 27.1
19:10 1005 29.68 834 24.63 1.1 34 76 -2.7 27.1
19:15 1005 29.68 834 24.63 1.2 34.1 76 -2.6 27.3
19:20 1005 29.68 834 24.63 1.1 34 76 -2.6 27.3
19:25 1005 29.68 834 24.63 1.1 34 76 -2.6 27.4
19:30 1005 29.68 834 24.63 1.1 33.9 77 -2.5 27.6
19:35 1005 29.68 834 24.63 1 33.7 78 -2.5 27.4
19:40 1005 29.68 834 24.63 0.9 33.6 77 -2.7 27.2
19:45 1005 29.68 834 24.63 0.9 33.7 77 -2.7 27.1
19:50 1005 29.68 834 24.63 1 33.8 77 -2.7 27.2
19:55 1005 29.68 834 24.63 1 33.8 76 -2.8 27
20:00 1005 29.68 834 24.63 1.1 34 75 -2.8 27
20:05 1005 29.68 834 24.63 1.1 34 76 -2.7 27.2
20:10 1004 29.65 833 24.6 0.9 33.7 76 -2.8 27
20:15 1004 29.65 833 24.6 0.9 33.6 76 -2.8 27
20:20 1005 29.68 834 24.63 0.9 33.5 77 -2.8 27
20:25 1005 29.68 834 24.63 0.9 33.6 77 -2.8 27
20:30 1005 29.68 834 24.63 0.9 33.7 76 -2.8 26.9
20:35 1004 29.65 834 24.63 0.9 33.6 76 -2.8 26.9
20:40 1004 29.65 834 24.63 0.9 33.6 76 -2.8 26.9
20:45 1005 29.68 834 24.63 1 33.8 76 -2.8 27
20:50 1005 29.68 834 24.63 1.1 34 76 -2.6 27.3
20:55 1004 29.65 834 24.63 1.1 34 76 -2.6 27.3
21:00 1004 29.65 833 24.6 1 33.8 77 -2.7 27.2
21:05 1004 29.65 834 24.63 0.9 33.7 75 -3 26.7
21:10 1005 29.68 834 24.63 0.8 33.5 75 -3.1 26.3
21:15 1005 29.68 834 24.63 0.8 33.4 76 -3 26.6
21:20 1005 29.68 834 24.63 0.8 33.5 76 -3 26.6
21:25 1005 29.68 834 24.63 0.9 33.6 76 -3 26.7
21:30 1005 29.68 834 24.63 0.8 33.4 76 -3.1 26.5
21:35 1005 29.68 834 24.63 0.6 33.1 77 -3 26.6
21:40 1005 29.68 834 24.63 0.6 33.1 77 -2.9 26.8
21:45 1005 29.68 834 24.63 0.6 33 77 -3 26.6
21:50 1005 29.68 834 24.63 0.6 33 78 -2.8 26.9
21:55 1005 29.68 834 24.63 0.3 32.6 82 -2.4 27.7
22:00 1005 29.68 834 24.63 0 32.1 85 -2.1 28.2
22:05 1005 29.68 834 24.63 -0.1 31.9 87 -1.9 28.6
22:10 1005 29.68 834 24.63 -0.1 31.8 89 -1.8 28.8
22:15 1005 29.68 834 24.63 -0.2 31.6 90 -1.7 28.9
22:20 1005 29.68 835 24.66 -0.2 31.7 90 -1.6 29.1
22:25 1006 29.71 835 24.66 -0.1 31.7 91 -1.5 29.4
22:30 1006 29.71 835 24.66 -0.1 31.7 91 -1.4 29.5
22:35 1006 29.71 835 24.66 -0.1 31.7 92 -1.2 29.8
22:40 1006 29.71 835 24.66 -0.2 31.7 93 -1.2 29.8
22:45 1006 29.71 835 24.66 -0.2 31.6 93 -1.2 29.9
22:50 1006 29.71 835 24.66 -0.3 31.5 94 -1.2 29.9
22:55 1006 29.71 835 24.66 -0.3 31.4 94 -1.2 29.9
23:00 1006 29.71 835 24.66 -0.3 31.4 94 -1.2 29.9
23:05 1006 29.71 835 24.66 -0.3 31.4 94 -1.1 30
23:10 1006 29.71 835 24.66 -0.3 31.4 94 -1.1 29.9
23:15 1006 29.71 835 24.66 -0.3 31.4 94 -1.1 30
23:20 1006 29.71 835 24.66 -0.3 31.4 95 -1.1 30
23:25 1006 29.71 835 24.66 -0.3 31.4 94 -1.1 30
23:30 1006 29.71 835 24.66 -0.3 31.5 95 -1.1 30.1
23:35 1006 29.71 835 24.66 -0.3 31.5 95 -1.1 30.1
23:40 1006 29.71 835 24.66 -0.3 31.5 95 -1.1 30.1
23:45 1006 29.71 835 24.66 -0.2 31.6 95 -1 30.2
23:50 1006 29.71 835 24.66 -0.3 31.5 94 -1.1 30
23:55 1006 29.71 835 24.66 -0.4 31.3 93 -1.4 29.5
24:00 1006 29.71 835 24.66 -0.5 31 92 -1.6 29.1